Time;durP1;ratioP1;P1;durP2;ratioP2;P2;SDS_P1;SDS_P2;PMS_P1;PMS_P2;Temp;Humidity;BMP_temperature;BMP_pressure;BME280_temperature;BME280_humidity;BME280_pressure;Samples;Min_cycle;Max_cycle;Signal;HPM_P1;HPM_P2
2022/05/06 00:01:42;;;;;;;13.48;7.57;;;;;;;;;;5052072;28;20473;-80
2022/05/06 00:04:07;;;;;;;11.23;6.82;;;;;;;;;;5035102;28;20037;-81
2022/05/06 00:06:33;;;;;;;7.18;6.00;;;;;;;;;;5052142;28;20094;-80
2022/05/06 00:08:59;;;;;;;10.52;6.38;;;;;;;;;;5052446;28;20079;-80
2022/05/06 00:11:25;;;;;;;11.20;6.13;;;;;;;;;;5050656;28;20037;-83
2022/05/06 00:13:52;;;;;;;9.43;5.88;;;;;;;;;;5051781;28;20117;-82
2022/05/06 00:16:22;;;;;;;8.07;5.15;;;;;;;;;;5033739;28;20067;-80
2022/05/06 00:18:48;;;;;;;9.15;5.55;;;;;;;;;;5050472;28;20029;-81
2022/05/06 00:21:13;;;;;;;8.90;4.35;;;;;;;;;;5051734;28;20099;-81
2022/05/06 00:23:39;;;;;;;8.73;5.45;;;;;;;;;;5033652;28;20103;-81
2022/05/06 00:26:05;;;;;;;8.25;5.10;;;;;;;;;;5050679;28;20025;-81
2022/05/06 00:28:31;;;;;;;7.28;4.20;;;;;;;;;;5052236;28;20032;-81
2022/05/06 00:30:57;;;;;;;7.20;4.18;;;;;;;;;;5051678;28;20039;-80
2022/05/06 00:33:26;;;;;;;8.60;4.22;;;;;;;;;;5049973;28;20392;-81
2022/05/06 00:35:56;;;;;;;14.07;4.93;;;;;;;;;;5050281;28;20487;-81
2022/05/06 00:38:22;;;;;;;7.40;4.43;;;;;;;;;;5050764;28;20028;-80
2022/05/06 00:40:48;;;;;;;8.35;4.65;;;;;;;;;;5050865;28;20027;-80
2022/05/06 00:43:13;;;;;;;10.35;4.40;;;;;;;;;;5033508;28;20037;-83
2022/05/06 00:45:52;;;;;;;5.97;4.40;;;;;;;;;;5051372;28;20388;-82
2022/05/06 00:48:21;;;;;;;8.05;5.30;;;;;;;;;;5033756;28;20041;-81
2022/05/06 00:50:48;;;;;;;6.43;4.38;;;;;;;;;;5033152;28;20025;-81
2022/05/06 00:53:14;;;;;;;6.82;5.20;;;;;;;;;;5051463;28;20128;-80
2022/05/06 00:55:40;;;;;;;6.35;4.82;;;;;;;;;;5050802;28;20068;-81
2022/05/06 00:58:06;;;;;;;7.45;4.78;;;;;;;;;;5050040;28;20098;-81
2022/05/06 01:00:32;;;;;;;8.50;4.55;;;;;;;;;;5051718;28;20064;-81
2022/05/06 01:02:58;;;;;;;6.93;5.70;;;;;;;;;;5051432;28;20104;-81
2022/05/06 01:05:24;;;;;;;10.20;5.32;;;;;;;;;;5050460;28;20460;-79
2022/05/06 01:07:51;;;;;;;10.88;5.43;;;;;;;;;;5049998;28;20110;-81
2022/05/06 01:10:20;;;;;;;11.90;5.30;;;;;;;;;;5051141;28;20052;-81
2022/05/06 01:12:47;;;;;;;7.38;4.60;;;;;;;;;;5051038;28;20396;-81
2022/05/06 01:15:27;;;;;;;7.65;5.03;;;;;;;;;;5050323;28;20021;-82
2022/05/06 01:17:55;;;;;;;6.20;4.72;;;;;;;;;;5051849;28;20099;-79
2022/05/06 01:20:22;;;;;;;10.82;4.68;;;;;;;;;;5051070;28;20025;-82
2022/05/06 01:22:52;;;;;;;7.90;4.75;;;;;;;;;;5030540;28;20029;-81
2022/05/06 01:25:18;;;;;;;7.15;4.85;;;;;;;;;;5031955;28;20097;-80
2022/05/06 01:27:47;;;;;;;9.50;4.55;;;;;;;;;;5029828;28;20159;-82
2022/05/06 01:30:27;;;;;;;8.32;5.03;;;;;;;;;;4996629;28;20057;-80
2022/05/06 01:32:53;;;;;;;9.23;5.45;;;;;;;;;;5030860;28;20077;-81
2022/05/06 01:35:21;;;;;;;6.40;5.00;;;;;;;;;;5031007;28;20026;-80
2022/05/06 01:37:49;;;;;;;5.88;4.88;;;;;;;;;;5030663;28;20029;-81
2022/05/06 01:40:18;;;;;;;7.80;6.00;;;;;;;;;;5031116;28;20022;-81
2022/05/06 01:42:45;;;;;;;7.20;4.93;;;;;;;;;;5031138;28;20037;-81
2022/05/06 01:45:11;;;;;;;7.88;5.55;;;;;;;;;;5013753;28;20033;-81
2022/05/06 01:47:38;;;;;;;10.88;6.00;;;;;;;;;;5031259;28;20022;-82
2022/05/06 01:50:05;;;;;;;10.52;6.40;;;;;;;;;;5016285;28;20025;-82
2022/05/06 01:52:31;;;;;;;11.13;5.78;;;;;;;;;;5017205;28;20036;-79
2022/05/06 01:54:56;;;;;;;7.55;5.65;;;;;;;;;;5033792;28;20422;-82
2022/05/06 01:57:22;;;;;;;12.20;5.80;;;;;;;;;;5035207;28;20032;-81
2022/05/06 01:59:47;;;;;;;12.05;6.03;;;;;;;;;;5034671;28;20428;-82
2022/05/06 02:02:13;;;;;;;8.57;5.18;;;;;;;;;;5033668;28;20021;-81
2022/05/06 02:07:24;;;;;;;8.35;6.15;;;;;;;;;;5034358;28;20033;-82
2022/05/06 02:09:50;;;;;;;9.30;5.38;;;;;;;;;;5034054;28;20021;-82
2022/05/06 02:12:15;;;;;;;10.90;5.90;;;;;;;;;;5033142;28;20029;-80
2022/05/06 02:14:41;;;;;;;12.32;5.55;;;;;;;;;;5033165;28;20037;-82
2022/05/06 02:17:06;;;;;;;8.00;5.45;;;;;;;;;;5033732;28;20026;-81
2022/05/06 02:19:32;;;;;;;12.25;5.85;;;;;;;;;;5032451;28;20074;-81
2022/05/06 02:21:57;;;;;;;12.32;5.70;;;;;;;;;;5033038;28;20060;-81
2022/05/06 02:24:23;;;;;;;6.43;5.20;;;;;;;;;;5033337;28;20013;-79
2022/05/06 02:26:48;;;;;;;8.35;5.47;;;;;;;;;;5034008;28;20021;-81
2022/05/06 02:29:14;;;;;;;10.15;5.88;;;;;;;;;;5033937;28;20037;-81
2022/05/06 02:34:23;;;;;;;7.65;5.22;;;;;;;;;;5033971;28;20112;-81
2022/05/06 02:36:49;;;;;;;7.53;6.25;;;;;;;;;;5032444;28;20092;-81
2022/05/06 02:39:15;;;;;;;10.52;5.28;;;;;;;;;;5032467;28;20083;-81
2022/05/06 02:41:40;;;;;;;10.65;5.75;;;;;;;;;;5033576;28;20082;-81
2022/05/06 02:44:06;;;;;;;10.63;5.07;;;;;;;;;;5033998;28;20385;-81
2022/05/06 02:46:33;;;;;;;7.78;4.45;;;;;;;;;;5033493;28;20025;-80
2022/05/06 02:49:00;;;;;;;8.63;4.80;;;;;;;;;;5016416;28;20026;-82
2022/05/06 02:51:28;;;;;;;8.82;4.88;;;;;;;;;;5033691;28;20032;-81
2022/05/06 02:53:55;;;;;;;7.40;4.70;;;;;;;;;;5016275;28;20029;-83
2022/05/06 02:56:20;;;;;;;8.05;5.07;;;;;;;;;;5033288;28;20049;-81
2022/05/06 02:58:46;;;;;;;7.78;4.47;;;;;;;;;;5031999;28;20071;-80
2022/05/06 03:01:11;;;;;;;9.43;5.05;;;;;;;;;;5033863;28;20131;-82
2022/05/06 03:03:37;;;;;;;5.90;4.63;;;;;;;;;;5032900;28;20033;-81
2022/05/06 03:06:02;;;;;;;12.38;5.43;;;;;;;;;;5016551;28;20362;-81
2022/05/06 03:08:28;;;;;;;6.70;4.65;;;;;;;;;;5033520;28;20029;-81
2022/05/06 03:10:53;;;;;;;9.95;4.97;;;;;;;;;;5036792;28;20529;-81
2022/05/06 03:13:19;;;;;;;8.77;4.75;;;;;;;;;;5033097;28;20454;-81
2022/05/06 03:15:45;;;;;;;7.82;5.78;;;;;;;;;;5031802;28;20083;-82
2022/05/06 03:18:11;;;;;;;10.43;5.25;;;;;;;;;;5033198;28;20116;-81
2022/05/06 03:20:38;;;;;;;6.90;4.82;;;;;;;;;;5016932;28;20025;-82
2022/05/06 03:23:04;;;;;;;8.15;5.25;;;;;;;;;;5052905;28;20047;-80
2022/05/06 03:25:30;;;;;;;13.60;6.03;;;;;;;;;;5053568;28;20419;-81
2022/05/06 03:28:00;;;;;;;7.28;5.53;;;;;;;;;;5053843;28;20052;-80
2022/05/06 03:30:26;;;;;;;10.32;5.18;;;;;;;;;;5053035;28;20029;-80
2022/05/06 03:32:55;;;;;;;9.45;5.13;;;;;;;;;;5051779;28;20045;-82
2022/05/06 03:35:20;;;;;;;10.32;5.25;;;;;;;;;;5052857;28;20094;-81
2022/05/06 03:37:46;;;;;;;9.13;6.10;;;;;;;;;;5052203;28;20059;-81
2022/05/06 03:40:13;;;;;;;10.25;6.07;;;;;;;;;;5052858;28;20409;-82
2022/05/06 03:42:39;;;;;;;8.50;5.97;;;;;;;;;;5052718;28;20104;-80
2022/05/06 03:45:06;;;;;;;12.07;6.22;;;;;;;;;;5052371;28;20409;-80
2022/05/06 03:47:32;;;;;;;10.82;6.43;;;;;;;;;;5052104;28;20061;-80
2022/05/06 03:52:41;;;;;;;9.13;6.00;;;;;;;;;;5053652;28;20039;-82
2022/05/06 03:55:07;;;;;;;12.63;6.00;;;;;;;;;;5051796;28;20032;-81
2022/05/06 03:57:33;;;;;;;10.30;6.18;;;;;;;;;;5053619;28;20025;-80
2022/05/06 03:59:58;;;;;;;10.60;6.55;;;;;;;;;;5056336;28;20025;-79
2022/05/06 04:02:24;;;;;;;9.30;6.15;;;;;;;;;;5056245;28;20021;-80
2022/05/06 04:04:50;;;;;;;12.00;6.38;;;;;;;;;;5037630;28;20032;-82
2022/05/06 04:07:15;;;;;;;10.93;6.88;;;;;;;;;;5054830;28;20481;-80
2022/05/06 04:09:41;;;;;;;11.45;6.60;;;;;;;;;;5053190;28;20039;-81
2022/05/06 04:12:09;;;;;;;13.65;7.07;;;;;;;;;;5052177;28;20029;-81
2022/05/06 04:14:35;;;;;;;14.48;7.38;;;;;;;;;;5053060;28;20071;-82
2022/05/06 04:17:02;;;;;;;31.02;8.77;;;;;;;;;;5035679;28;20056;-81
2022/05/06 04:19:28;;;;;;;16.98;7.57;;;;;;;;;;5051075;28;20044;-80
2022/05/06 04:24:38;;;;;;;11.13;6.47;;;;;;;;;;5052706;28;20055;-82
2022/05/06 04:27:04;;;;;;;12.65;7.25;;;;;;;;;;5051409;28;20485;-82
2022/05/06 04:29:29;;;;;;;17.13;7.85;;;;;;;;;;5052475;28;20128;-82
2022/05/06 04:31:55;;;;;;;18.88;8.20;;;;;;;;;;5053424;28;20123;-81
2022/05/06 04:34:21;;;;;;;11.57;7.80;;;;;;;;;;5035056;28;20051;-82
2022/05/06 04:36:46;;;;;;;11.57;6.78;;;;;;;;;;5052949;28;20070;-81
2022/05/06 04:39:12;;;;;;;17.95;7.40;;;;;;;;;;5052301;28;20033;-82
2022/05/06 04:41:37;;;;;;;12.13;7.03;;;;;;;;;;5053290;28;20029;-81
2022/05/06 04:44:03;;;;;;;12.30;7.35;;;;;;;;;;5050783;28;20029;-82
2022/05/06 04:46:28;;;;;;;10.10;6.93;;;;;;;;;;5035798;28;20021;-82
2022/05/06 04:48:54;;;;;;;12.02;6.72;;;;;;;;;;5034877;28;20445;-81
2022/05/06 04:51:19;;;;;;;13.27;7.53;;;;;;;;;;5051438;28;20100;-83
2022/05/06 04:53:45;;;;;;;13.90;7.75;;;;;;;;;;5052143;28;20021;-79
2022/05/06 04:56:10;;;;;;;13.45;8.07;;;;;;;;;;5052744;28;20083;-83
2022/05/06 04:58:36;;;;;;;14.35;8.20;;;;;;;;;;5053335;28;20218;-81
2022/05/06 05:01:02;;;;;;;15.57;7.57;;;;;;;;;;5054283;28;20480;-81
2022/05/06 05:03:28;;;;;;;19.55;7.90;;;;;;;;;;5052998;28;20485;-80
2022/05/06 05:05:54;;;;;;;10.48;7.93;;;;;;;;;;5034386;28;20811;-81
2022/05/06 05:08:20;;;;;;;12.35;7.75;;;;;;;;;;5050413;28;20116;-80
2022/05/06 05:10:46;;;;;;;14.10;7.47;;;;;;;;;;5052596;28;20094;-80
2022/05/06 05:13:12;;;;;;;14.05;7.70;;;;;;;;;;5033601;28;20481;-82
2022/05/06 05:15:37;;;;;;;11.70;8.07;;;;;;;;;;5044147;28;20036;-82
2022/05/06 05:18:03;;;;;;;12.93;8.68;;;;;;;;;;5048847;28;20155;-81
2022/05/06 05:20:29;;;;;;;17.23;8.77;;;;;;;;;;5050134;28;20029;-80
2022/05/06 05:22:54;;;;;;;14.77;8.02;;;;;;;;;;5050386;28;20025;-82
2022/05/06 05:25:20;;;;;;;16.83;8.55;;;;;;;;;;5051929;28;20196;-81
2022/05/06 05:27:45;;;;;;;19.63;8.15;;;;;;;;;;5056514;28;20115;-79
2022/05/06 05:30:11;;;;;;;15.15;8.02;;;;;;;;;;5052055;28;20536;-78
2022/05/06 05:32:39;;;;;;;15.27;7.72;;;;;;;;;;5044941;28;20049;-80
2022/05/06 05:35:05;;;;;;;14.93;9.48;;;;;;;;;;5053330;28;20131;-83
2022/05/06 05:37:31;;;;;;;14.32;9.35;;;;;;;;;;5052983;28;20025;-80
2022/05/06 05:39:57;;;;;;;16.15;9.20;;;;;;;;;;5034764;28;20029;-77
2022/05/06 05:42:24;;;;;;;14.68;8.32;;;;;;;;;;5052765;28;20128;-80
2022/05/06 05:50:19;;;;;;;11.85;8.40;;;;;;;;;;5050341;28;20572;-82
2022/05/06 05:52:45;;;;;;;14.70;9.23;;;;;;;;;;5050325;28;20112;-79
2022/05/06 05:55:11;;;;;;;14.40;9.05;;;;;;;;;;5039185;28;20036;-81
2022/05/06 05:57:38;;;;;;;15.43;8.70;;;;;;;;;;5052428;28;20033;-78
2022/05/06 06:00:05;;;;;;;15.45;8.55;;;;;;;;;;5051286;28;20396;-81
2022/05/06 06:02:31;;;;;;;12.40;8.38;;;;;;;;;;5055072;28;20029;-79
2022/05/06 06:04:57;;;;;;;14.98;9.15;;;;;;;;;;5054105;28;20063;-79
2022/05/06 06:07:23;;;;;;;12.60;8.40;;;;;;;;;;5052711;28;20053;-79
2022/05/06 06:09:48;;;;;;;15.60;9.48;;;;;;;;;;5051890;28;20536;-78
2022/05/06 06:12:19;;;;;;;12.75;8.57;;;;;;;;;;5052260;28;20029;-80
2022/05/06 06:14:47;;;;;;;16.10;8.95;;;;;;;;;;5051654;28;20115;-79
2022/05/06 06:17:13;;;;;;;18.20;11.80;;;;;;;;;;5054308;28;20040;-79
2022/05/06 06:19:39;;;;;;;18.83;9.15;;;;;;;;;;5037560;28;20041;-80
2022/05/06 06:22:05;;;;;;;13.50;9.35;;;;;;;;;;5054854;28;20025;-80
2022/05/06 06:24:30;;;;;;;16.40;9.40;;;;;;;;;;5026697;28;20029;-80
2022/05/06 06:26:56;;;;;;;12.88;9.45;;;;;;;;;;5048557;28;20037;-77
2022/05/06 06:29:22;;;;;;;13.07;9.00;;;;;;;;;;5030521;28;20025;-81
2022/05/06 06:31:47;;;;;;;15.77;9.88;;;;;;;;;;5044248;28;20041;-80
2022/05/06 06:34:18;;;;;;;18.80;10.25;;;;;;;;;;5047488;28;20349;-76
2022/05/06 06:36:44;;;;;;;19.00;11.13;;;;;;;;;;5047234;28;20031;-76
2022/05/06 06:39:09;;;;;;;18.52;10.18;;;;;;;;;;5047612;28;20033;-79
2022/05/06 06:41:37;;;;;;;16.50;9.90;;;;;;;;;;5051331;28;20092;-80
2022/05/06 06:44:05;;;;;;;19.98;10.55;;;;;;;;;;5049728;28;20458;-78
2022/05/06 06:46:33;;;;;;;16.38;10.98;;;;;;;;;;5048998;28;20265;-78
2022/05/06 06:48:58;;;;;;;18.83;10.55;;;;;;;;;;5038874;28;20029;-77
2022/05/06 06:51:24;;;;;;;17.17;10.93;;;;;;;;;;5045095;28;20055;-78
2022/05/06 06:53:58;;;;;;;22.30;13.45;;;;;;;;;;5047349;28;20039;-77
2022/05/06 06:56:24;;;;;;;15.30;10.75;;;;;;;;;;5042731;28;20029;-77
2022/05/06 06:58:50;;;;;;;19.50;10.52;;;;;;;;;;5046220;28;20112;-80
2022/05/06 07:01:17;;;;;;;20.27;10.20;;;;;;;;;;5028783;28;20035;-79
2022/05/06 07:03:43;;;;;;;14.65;9.93;;;;;;;;;;5034748;28;20060;-77
2022/05/06 07:11:56;;;;;;;16.45;11.02;;;;;;;;;;5051773;28;20027;-81
2022/05/06 07:14:25;;;;;;;18.75;9.95;;;;;;;;;;5027152;28;20102;-81
2022/05/06 07:16:51;;;;;;;19.92;10.82;;;;;;;;;;5031721;28;20956;-82
2022/05/06 07:19:17;;;;;;;16.88;9.90;;;;;;;;;;5040926;28;20029;-81
2022/05/06 07:21:43;;;;;;;19.42;10.52;;;;;;;;;;5046904;28;20040;-81
2022/05/06 07:24:09;;;;;;;18.75;11.02;;;;;;;;;;5037874;28;20032;-81
2022/05/06 07:26:35;;;;;;;26.38;11.32;;;;;;;;;;5049444;28;20692;-78
2022/05/06 07:29:00;;;;;;;19.15;10.50;;;;;;;;;;5046383;28;20106;-78
2022/05/06 07:31:26;;;;;;;19.98;12.20;;;;;;;;;;5038675;28;20095;-78
2022/05/06 07:33:52;;;;;;;16.13;11.85;;;;;;;;;;5040546;28;20037;-78
2022/05/06 07:36:17;;;;;;;27.05;14.20;;;;;;;;;;5042688;28;20037;-80
2022/05/06 07:38:43;;;;;;;18.77;11.82;;;;;;;;;;5044212;28;20457;-77
2022/05/06 07:41:09;;;;;;;20.58;12.23;;;;;;;;;;5028839;28;20029;-78
2022/05/06 07:43:35;;;;;;;15.40;10.50;;;;;;;;;;5027320;28;20569;-77
2022/05/06 07:46:01;;;;;;;21.23;12.40;;;;;;;;;;5044634;28;20029;-77
2022/05/06 07:48:26;;;;;;;19.77;11.55;;;;;;;;;;5026292;28;20123;-76
2022/05/06 07:50:52;;;;;;;20.52;12.10;;;;;;;;;;5053588;28;20633;-79
2022/05/06 07:53:19;;;;;;;21.63;11.68;;;;;;;;;;5037396;28;20029;-77
2022/05/06 07:55:46;;;;;;;20.27;12.10;;;;;;;;;;5045212;28;20069;-78
2022/05/06 07:58:12;;;;;;;23.55;10.70;;;;;;;;;;5042873;28;20036;-78
2022/05/06 08:00:39;;;;;;;22.55;11.65;;;;;;;;;;5033574;28;20029;-77
2022/05/06 08:05:56;;;;;;;22.73;12.70;;;;;;;;;;5045641;28;20046;-77
2022/05/06 08:08:22;;;;;;;28.13;12.90;;;;;;;;;;5045631;28;20033;-76
2022/05/06 08:10:48;;;;;;;17.60;12.18;;;;;;;;;;5046177;28;20515;-77
2022/05/06 08:13:14;;;;;;;17.77;12.45;;;;;;;;;;5043943;28;20113;-80
2022/05/06 08:15:39;;;;;;;29.17;17.58;;;;;;;;;;5045700;28;20589;-78
2022/05/06 08:18:05;;;;;;;16.60;11.48;;;;;;;;;;5043072;28;20032;-76
2022/05/06 08:20:31;;;;;;;20.65;12.20;;;;;;;;;;5042424;28;20036;-78
2022/05/06 08:22:56;;;;;;;26.20;12.70;;;;;;;;;;5042808;28;20022;-76
2022/05/06 08:25:22;;;;;;;20.83;13.25;;;;;;;;;;5035111;28;20029;-77
2022/05/06 08:27:48;;;;;;;15.75;11.85;;;;;;;;;;5029140;28;20116;-77
2022/05/06 08:30:14;;;;;;;18.92;12.02;;;;;;;;;;5034200;28;20539;-78
2022/05/06 08:32:40;;;;;;;19.33;11.82;;;;;;;;;;5034060;28;20841;-79
2022/05/06 08:35:07;;;;;;;24.58;15.68;;;;;;;;;;5035143;28;20400;-77
2022/05/06 08:37:46;;;;;;;23.70;12.77;;;;;;;;;;5038104;28;20067;-76
2022/05/06 08:40:17;;;;;;;21.23;12.20;;;;;;;;;;5039396;28;20684;-77
2022/05/06 08:42:44;;;;;;;22.45;12.57;;;;;;;;;;5039230;28;20024;-77
2022/05/06 08:50:52;;;;;;;17.75;12.75;;;;;;;;;;5035787;28;20115;-76
2022/05/06 08:53:26;;;;;;;23.33;13.23;;;;;;;;;;5036924;28;20063;-77
2022/05/06 08:55:55;;;;;;;18.77;12.75;;;;;;;;;;5039288;28;20507;-75
2022/05/06 08:58:23;;;;;;;24.75;13.70;;;;;;;;;;5035932;28;20036;-77
2022/05/06 09:00:50;;;;;;;20.58;13.80;;;;;;;;;;5027508;28;20874;-76
2022/05/06 09:03:17;;;;;;;20.20;13.30;;;;;;;;;;5040286;28;20025;-76
2022/05/06 09:05:54;;;;;;;22.92;13.98;;;;;;;;;;5021570;28;20400;-77
2022/05/06 09:08:21;;;;;;;20.33;12.20;;;;;;;;;;5022084;28;21020;-77
2022/05/06 09:11:04;;;;;;;19.40;12.55;;;;;;;;;;5035947;28;20181;-76
2022/05/06 09:13:36;;;;;;;16.25;12.77;;;;;;;;;;5025464;28;20037;-76
2022/05/06 09:16:42;;;;;;;41.65;17.95;;;;;;;;;;5022482;28;20025;-79
2022/05/06 09:19:21;;;;;;;18.20;13.40;;;;;;;;;;5010544;28;20048;-76
2022/05/06 09:22:19;;;;;;;15.10;12.63;;;;;;;;;;5039133;28;20024;-76
2022/05/06 09:24:50;;;;;;;19.80;13.10;;;;;;;;;;5039258;28;20033;-78
2022/05/06 09:27:17;;;;;;;14.52;11.70;;;;;;;;;;5024889;28;20042;-77
2022/05/06 09:29:54;;;;;;;21.50;13.32;;;;;;;;;;5036144;28;20079;-77
2022/05/06 09:32:25;;;;;;;17.77;12.23;;;;;;;;;;5017413;28;20064;-77
2022/05/06 09:34:53;;;;;;;17.33;14.95;;;;;;;;;;5036106;28;20059;-77
2022/05/06 09:37:38;;;;;;;16.65;12.35;;;;;;;;;;5036608;28;20093;-77
2022/05/06 09:40:11;;;;;;;17.48;12.05;;;;;;;;;;5039400;28;20143;-79
2022/05/06 09:42:45;;;;;;;15.20;11.77;;;;;;;;;;5038770;28;20028;-77
2022/05/06 09:45:13;;;;;;;18.02;12.45;;;;;;;;;;5039942;28;20040;-78
2022/05/06 09:47:40;;;;;;;18.45;12.50;;;;;;;;;;5038939;28;20041;-77
2022/05/06 09:50:08;;;;;;;16.55;11.88;;;;;;;;;;5041175;28;20449;-77
2022/05/06 09:52:36;;;;;;;15.80;13.55;;;;;;;;;;5039841;28;20037;-78
2022/05/06 09:55:09;;;;;;;20.23;12.23;;;;;;;;;;5039713;28;20037;-75
2022/05/06 09:57:36;;;;;;;18.15;12.88;;;;;;;;;;5038867;28;20040;-78
2022/05/06 10:00:04;;;;;;;15.45;12.30;;;;;;;;;;5022926;28;20047;-78
2022/05/06 10:02:30;;;;;;;19.70;11.93;;;;;;;;;;5036896;28;20029;-77
2022/05/06 10:04:55;;;;;;;22.70;13.10;;;;;;;;;;5036557;28;20055;-78
2022/05/06 10:07:26;;;;;;;16.33;12.30;;;;;;;;;;5036710;28;20453;-78
2022/05/06 10:10:01;;;;;;;19.40;12.83;;;;;;;;;;5041985;28;20391;-76
2022/05/06 10:12:39;;;;;;;18.23;12.57;;;;;;;;;;5030792;28;20441;-79
2022/05/06 10:15:13;;;;;;;17.20;11.93;;;;;;;;;;5046679;28;20036;-77
2022/05/06 10:17:55;;;;;;;17.10;15.13;;;;;;;;;;5053846;28;20071;-79
2022/05/06 10:20:38;;;;;;;16.25;11.30;;;;;;;;;;5046392;28;20750;-78
2022/05/06 10:23:11;;;;;;;20.88;11.57;;;;;;;;;;5049532;28;20044;-76
2022/05/06 10:25:52;;;;;;;13.48;9.95;;;;;;;;;;5031213;28;20130;-78
2022/05/06 10:34:14;;;;;;;12.63;10.68;;;;;;;;;;5049857;28;20136;-77
2022/05/06 10:36:51;;;;;;;19.98;9.98;;;;;;;;;;5046182;28;20029;-77
2022/05/06 10:39:24;;;;;;;15.93;9.93;;;;;;;;;;5056854;28;20039;-77
2022/05/06 10:42:16;;;;;;;13.50;9.80;;;;;;;;;;5045759;28;20121;-77
2022/05/06 10:44:50;;;;;;;12.63;9.80;;;;;;;;;;5037898;28;20024;-78
2022/05/06 10:47:16;;;;;;;19.08;10.20;;;;;;;;;;5051447;28;20035;-77
2022/05/06 10:49:46;;;;;;;20.40;9.68;;;;;;;;;;5033426;28;20055;-82
2022/05/06 10:52:24;;;;;;;13.35;10.13;;;;;;;;;;5050636;28;20031;-81
2022/05/06 10:54:55;;;;;;;15.38;9.48;;;;;;;;;;5043053;28;20037;-77
2022/05/06 10:57:25;;;;;;;15.17;10.07;;;;;;;;;;5051452;28;20457;-84
2022/05/06 10:59:54;;;;;;;15.55;9.63;;;;;;;;;;5032276;28;20409;-80
2022/05/06 11:02:28;;;;;;;15.90;9.20;;;;;;;;;;5041016;28;20345;-83
2022/05/06 11:05:00;;;;;;;11.43;8.02;;;;;;;;;;5051655;28;20079;-79
2022/05/06 11:07:27;;;;;;;14.88;8.70;;;;;;;;;;5038325;28;20048;-80
2022/05/06 11:09:53;;;;;;;14.07;8.50;;;;;;;;;;5047127;28;20397;-80
2022/05/06 11:12:40;;;;;;;13.57;8.30;;;;;;;;;;5035323;28;20025;-80
2022/05/06 11:15:30;;;;;;;12.82;8.82;;;;;;;;;;5039320;28;20037;-78
2022/05/06 11:18:00;;;;;;;13.63;8.82;;;;;;;;;;5038099;28;20048;-79
2022/05/06 11:20:29;;;;;;;13.57;9.20;;;;;;;;;;5035800;28;20029;-80
2022/05/06 11:23:08;;;;;;;15.55;9.68;;;;;;;;;;5031076;28;20104;-79
2022/05/06 11:25:55;;;;;;;14.27;9.32;;;;;;;;;;5048600;28;20036;-81
2022/05/06 11:28:32;;;;;;;22.38;12.05;;;;;;;;;;5041645;28;20135;-81
2022/05/06 11:30:57;;;;;;;14.15;9.48;;;;;;;;;;5052128;28;20056;-81
2022/05/06 11:33:25;;;;;;;17.70;9.85;;;;;;;;;;5051599;28;20075;-80
2022/05/06 11:36:03;;;;;;;17.52;9.55;;;;;;;;;;5056547;28;20544;-83
2022/05/06 11:38:37;;;;;;;12.60;9.30;;;;;;;;;;5041598;28;20124;-79
2022/05/06 11:41:11;;;;;;;18.17;9.32;;;;;;;;;;5034019;28;20055;-80
2022/05/06 11:43:39;;;;;;;13.50;9.35;;;;;;;;;;5042142;28;20032;-82
2022/05/06 11:48:51;;;;;;;20.80;9.02;;;;;;;;;;5048935;28;20102;-77
2022/05/06 11:51:25;;;;;;;18.90;11.45;;;;;;;;;;5044983;28;20107;-76
2022/05/06 11:53:56;;;;;;;14.77;10.07;;;;;;;;;;5042935;28;20033;-77
2022/05/06 11:56:24;;;;;;;23.52;9.50;;;;;;;;;;5044343;28;20044;-79
2022/05/06 11:58:55;;;;;;;14.63;9.82;;;;;;;;;;5019099;28;20041;-79
2022/05/06 12:01:34;;;;;;;17.10;10.48;;;;;;;;;;5044644;28;20386;-81
2022/05/06 12:04:08;;;;;;;28.58;14.68;;;;;;;;;;5048629;28;20425;-79
2022/05/06 12:06:40;;;;;;;19.73;10.73;;;;;;;;;;5045118;28;20029;-79
2022/05/06 12:09:18;;;;;;;129.27;16.15;;;;;;;;;;5034654;28;20393;-79
2022/05/06 12:11:45;;;;;;;14.00;8.95;;;;;;;;;;5047444;28;20362;-79
2022/05/06 12:14:15;;;;;;;17.80;9.15;;;;;;;;;;5050845;28;20026;-79
2022/05/06 12:16:58;;;;;;;14.60;10.75;;;;;;;;;;5044420;28;20489;-83
2022/05/06 12:19:41;;;;;;;16.42;10.73;;;;;;;;;;5042815;28;20029;-80
2022/05/06 12:22:14;;;;;;;13.23;8.90;;;;;;;;;;5034230;28;20031;-78
2022/05/06 12:24:47;;;;;;;14.07;9.55;;;;;;;;;;5040603;28;20029;-79
2022/05/06 12:27:25;;;;;;;11.85;9.57;;;;;;;;;;5030390;28;20116;-75
2022/05/06 12:29:51;;;;;;;18.35;9.38;;;;;;;;;;5045661;28;20080;-78
2022/05/06 12:32:18;;;;;;;19.42;9.65;;;;;;;;;;5049724;28;20511;-78
2022/05/06 12:34:44;;;;;;;18.17;10.25;;;;;;;;;;5033256;28;20028;-79
2022/05/06 12:37:15;;;;;;;22.45;10.50;;;;;;;;;;5047444;28;20033;-78
2022/05/06 12:39:45;;;;;;;15.77;10.80;;;;;;;;;;5049672;28;20025;-78
2022/05/06 12:42:12;;;;;;;17.15;10.18;;;;;;;;;;5048626;28;20262;-79
2022/05/06 12:44:38;;;;;;;15.38;11.20;;;;;;;;;;5047543;28;20297;-79
2022/05/06 12:50:04;;;;;;;14.40;9.77;;;;;;;;;;5046838;28;20495;-78
2022/05/06 12:52:33;;;;;;;14.30;9.27;;;;;;;;;;5016409;28;20064;-79
2022/05/06 12:54:59;;;;;;;13.90;10.18;;;;;;;;;;5027851;28;20055;-78
2022/05/06 12:57:28;;;;;;;11.48;9.18;;;;;;;;;;5042215;28;20024;-79
2022/05/06 12:59:54;;;;;;;12.82;9.63;;;;;;;;;;5050168;28;20166;-78
2022/05/06 13:02:21;;;;;;;95.68;13.38;;;;;;;;;;5049365;28;20049;-79
2022/05/06 13:04:52;;;;;;;18.55;9.57;;;;;;;;;;5048628;28;20028;-78
2022/05/06 13:07:17;;;;;;;13.55;10.07;;;;;;;;;;5049585;28;20072;-79
2022/05/06 13:09:43;;;;;;;20.85;9.95;;;;;;;;;;5046894;28;20060;-80
2022/05/06 13:12:09;;;;;;;18.40;9.23;;;;;;;;;;5049600;28;20025;-79
2022/05/06 13:14:35;;;;;;;22.15;8.75;;;;;;;;;;5045557;28;20475;-77
2022/05/06 13:17:04;;;;;;;15.82;8.77;;;;;;;;;;5032474;28;20025;-77
2022/05/06 13:19:30;;;;;;;34.97;9.05;;;;;;;;;;5042926;28;20048;-78
2022/05/06 13:21:56;;;;;;;31.05;10.25;;;;;;;;;;5053333;28;20481;-80
2022/05/06 13:24:23;;;;;;;12.70;9.15;;;;;;;;;;5028816;28;20029;-78
2022/05/06 13:26:49;;;;;;;15.07;9.02;;;;;;;;;;5049846;28;20040;-78
2022/05/06 13:29:15;;;;;;;12.60;8.52;;;;;;;;;;5049546;28;20516;-78
2022/05/06 13:31:44;;;;;;;17.80;9.52;;;;;;;;;;5049472;28;20021;-79
2022/05/06 13:34:09;;;;;;;18.35;10.48;;;;;;;;;;5027959;28;20128;-79
2022/05/06 13:36:37;;;;;;;14.80;9.90;;;;;;;;;;5043279;28;20112;-78
2022/05/06 13:39:03;;;;;;;12.75;9.48;;;;;;;;;;5043794;28;20112;-78
2022/05/06 13:41:28;;;;;;;10.40;8.63;;;;;;;;;;5017475;28;20093;-77
2022/05/06 13:43:56;;;;;;;34.65;10.80;;;;;;;;;;5050805;28;20021;-78
2022/05/06 13:46:24;;;;;;;14.80;10.65;;;;;;;;;;5048447;28;20033;-77
2022/05/06 13:48:53;;;;;;;13.70;10.23;;;;;;;;;;5032317;28;20473;-78
2022/05/06 13:51:20;;;;;;;18.05;11.07;;;;;;;;;;5053790;28;20028;-78
2022/05/06 13:53:48;;;;;;;16.23;10.73;;;;;;;;;;5053221;28;20029;-78
2022/05/06 13:59:05;;;;;;;24.55;11.32;;;;;;;;;;5046500;28;20067;-76
2022/05/06 14:01:32;;;;;;;17.75;11.43;;;;;;;;;;5052991;28;20100;-79
2022/05/06 14:03:58;;;;;;;18.30;11.25;;;;;;;;;;5043210;28;20021;-80
2022/05/06 14:06:24;;;;;;;23.58;13.55;;;;;;;;;;5050820;28;20083;-78
2022/05/06 14:08:49;;;;;;;16.25;11.05;;;;;;;;;;5051901;28;20025;-78
2022/05/06 14:11:16;;;;;;;15.52;10.13;;;;;;;;;;5052610;28;20096;-79
2022/05/06 14:13:44;;;;;;;15.00;11.30;;;;;;;;;;5034540;28;20048;-79
2022/05/06 14:16:11;;;;;;;14.27;11.60;;;;;;;;;;5052296;28;20028;-77
2022/05/06 14:18:36;;;;;;;13.70;10.43;;;;;;;;;;5028562;28;20033;-78
2022/05/06 14:21:02;;;;;;;14.85;10.60;;;;;;;;;;5052991;28;20033;-77
2022/05/06 14:23:28;;;;;;;20.15;10.85;;;;;;;;;;5057535;28;20099;-77
2022/05/06 14:25:55;;;;;;;18.25;11.02;;;;;;;;;;5040659;28;20017;-78
2022/05/06 14:28:22;;;;;;;12.95;10.40;;;;;;;;;;5054055;28;20448;-81
2022/05/06 14:30:47;;;;;;;15.65;10.55;;;;;;;;;;5035302;28;20032;-79
2022/05/06 14:33:13;;;;;;;15.98;10.68;;;;;;;;;;5043332;28;20127;-78
2022/05/06 14:35:39;;;;;;;14.60;10.98;;;;;;;;;;5051976;28;20162;-78
2022/05/06 14:38:06;;;;;;;15.57;10.88;;;;;;;;;;5050880;28;20024;-79
2022/05/06 14:40:32;;;;;;;14.77;9.95;;;;;;;;;;5045781;28;20509;-79
2022/05/06 14:42:58;;;;;;;16.48;11.70;;;;;;;;;;5015677;28;20128;-81
2022/05/06 14:45:24;;;;;;;15.40;10.57;;;;;;;;;;5050027;28;20107;-79
2022/05/06 14:47:51;;;;;;;18.92;10.45;;;;;;;;;;5049479;28;20051;-79
2022/05/06 14:50:17;;;;;;;10.77;9.38;;;;;;;;;;5033670;28;20032;-79
2022/05/06 14:52:45;;;;;;;13.98;9.40;;;;;;;;;;5032969;28;20028;-79
2022/05/06 14:55:10;;;;;;;14.65;9.68;;;;;;;;;;5047951;28;20496;-77
2022/05/06 14:57:36;;;;;;;18.10;9.00;;;;;;;;;;5051674;28;20060;-77
2022/05/06 15:00:05;;;;;;;14.55;10.05;;;;;;;;;;5051805;28;20077;-79
2022/05/06 15:02:31;;;;;;;15.07;9.98;;;;;;;;;;5033281;28;20017;-77
2022/05/06 15:04:57;;;;;;;11.65;8.18;;;;;;;;;;5051168;28;20032;-78
2022/05/06 15:07:31;;;;;;;14.75;8.77;;;;;;;;;;5043215;28;20028;-76
2022/05/06 15:09:57;;;;;;;14.57;8.38;;;;;;;;;;5033147;28;20128;-76
2022/05/06 15:12:24;;;;;;;16.63;8.60;;;;;;;;;;5050924;28;20080;-78
2022/05/06 15:14:50;;;;;;;11.48;8.93;;;;;;;;;;5051792;28;20545;-79
2022/05/06 15:17:19;;;;;;;13.20;8.70;;;;;;;;;;5050002;28;20382;-76
2022/05/06 15:19:47;;;;;;;13.75;9.07;;;;;;;;;;5052186;28;20032;-78